Indiana Beach, Indiana
Current Conditions -  °F | °C
As of 8:35 PM on Thursday 27 Nov 2014 (Local Time) from KMCX Reporting Station
Light Snow Light Snow  
Wind Chill: 17°   Ceiling: 3500
Heat Index: 25°   Visibility: 10mi
Dew Point: 18°   Wind: 7mph
Humidity: 75%   Direction: 310°NW
Pressure: 30.39"   Gusts: NA
Location:  40.8005°N, 86.6926°W
Report Text: KMCX 280135Z AUTO 31006KT 10SM -SN SCT026 OVC035 M04/M08 A3039 RMK AO2 T10411080
Loading
Personal Weather Stations






























Interactive Weather Map New forecast layout! Learn more

10-Day Weather Forecast

Advertisements
Track Severe Weather on mobile